createdAt,value
2022-11-10T07:07:26.771Z,5.83
2022-11-10T07:10:22.856Z,8.57
2022-11-10T07:13:18.406Z,6.43
2022-11-10T07:16:14.759Z,7.47
2022-11-10T07:19:10.215Z,7.10
2022-11-10T07:22:10.616Z,7.80
2022-11-10T07:25:10.377Z,6.73
2022-11-10T07:28:08.356Z,7.20
2022-11-10T07:31:07.046Z,6.63
2022-11-10T07:34:02.673Z,7.47
2022-11-10T07:36:58.035Z,7.00
2022-11-10T07:39:54.092Z,6.43
2022-11-10T07:42:52.054Z,7.27
2022-11-10T07:45:47.544Z,7.23
2022-11-10T07:48:42.704Z,6.63
2022-11-10T07:51:38.157Z,6.07
2022-11-10T07:54:33.172Z,6.50
2022-11-10T07:57:28.571Z,6.77
2022-11-10T08:00:26.833Z,6.13
2022-11-10T08:03:24.984Z,6.17
2022-11-10T08:06:20.338Z,6.07
2022-11-10T08:09:15.975Z,5.97
2022-11-10T08:12:11.508Z,5.13
2022-11-10T08:15:08.020Z,6.00
2022-11-10T08:18:08.795Z,5.10
2022-11-10T08:21:05.239Z,5.33
2022-11-10T08:24:00.772Z,5.50
2022-11-10T08:26:56.390Z,5.60
2022-11-10T08:29:51.530Z,4.90
2022-11-10T08:32:47.109Z,4.90
2022-11-10T08:35:47.293Z,4.90
2022-11-10T08:38:42.769Z,4.40
2022-11-10T08:41:37.940Z,4.40
2022-11-10T08:44:33.671Z,5.10
2022-11-10T08:47:29.121Z,5.10
2022-11-10T08:50:24.898Z,4.27
2022-11-10T08:53:26.015Z,4.33
2022-11-10T08:56:21.890Z,4.23
2022-11-10T08:59:17.143Z,5.00
2022-11-10T09:02:13.888Z,3.87
2022-11-10T09:05:10.797Z,4.10
2022-11-10T09:08:07.520Z,4.00
2022-11-10T09:11:06.454Z,3.97
2022-11-10T09:14:02.167Z,4.37
2022-11-10T09:16:57.871Z,3.97
2022-11-10T09:19:53.873Z,4.13
2022-11-10T09:22:48.926Z,3.87
2022-11-10T09:25:45.325Z,3.67
2022-11-10T09:28:43.336Z,3.57
2022-11-10T09:31:39.236Z,3.40
2022-11-10T09:34:34.721Z,3.30
2022-11-10T09:37:31.081Z,2.87
2022-11-10T09:40:31.679Z,2.80
2022-11-10T09:43:36.410Z,3.10
2022-11-10T09:49:39.964Z,3.13
2022-11-10T09:52:39.767Z,3.70
2022-11-10T09:55:45.636Z,2.70
2022-11-10T09:58:44.889Z,2.90
2022-11-10T10:01:51.620Z,2.28
2022-11-10T10:05:33.199Z,2.50
2022-11-10T10:08:44.331Z,2.65
2022-11-10T10:11:57.150Z,2.78
2022-11-10T10:15:15.882Z,2.33
2022-11-10T10:18:28.810Z,2.70
2022-11-10T10:21:43.120Z,2.83
2022-11-10T10:27:35.181Z,2.10
2022-11-10T10:30:30.518Z,2.40
2022-11-10T10:33:28.611Z,2.20
2022-11-10T10:36:28.061Z,2.17
2022-11-10T10:39:31.536Z,2.13
2022-11-10T10:42:35.391Z,3.00
2022-11-10T10:45:33.030Z,2.00
2022-11-10T10:48:33.601Z,1.67
2022-11-10T10:51:34.162Z,3.00
2022-11-10T10:54:34.840Z,1.83
2022-11-10T10:57:32.512Z,1.90
2022-11-10T11:00:29.692Z,1.70
2022-11-10T11:03:41.430Z,1.75
2022-11-10T11:06:38.345Z,1.80
2022-11-10T11:09:43.214Z,1.65
2022-11-10T11:12:38.856Z,1.73
2022-11-10T11:15:34.571Z,1.80
2022-11-10T11:18:35.251Z,1.50
2022-11-10T11:21:37.511Z,2.00
2022-11-10T11:24:43.011Z,2.03
2022-11-10T11:27:50.331Z,1.42
2022-11-10T11:31:02.682Z,1.88
2022-11-10T11:34:07.400Z,1.83
2022-11-10T11:37:15.360Z,1.58
2022-11-10T11:40:38.323Z,1.33
2022-11-10T11:44:15.297Z,1.50
2022-11-10T11:47:28.421Z,1.70
2022-11-10T11:50:35.550Z,1.87
2022-11-10T11:53:49.770Z,2.13
2022-11-10T11:56:48.879Z,1.85
2022-11-10T12:00:08.799Z,2.33
2022-11-10T12:03:56.193Z,2.70
2022-11-10T12:07:09.891Z,2.60
2022-11-10T12:10:21.201Z,2.20
2022-11-10T12:13:40.771Z,2.10
2022-11-10T12:16:38.760Z,2.00
2022-11-10T12:19:44.188Z,2.50
2022-11-10T12:22:54.069Z,1.92
2022-11-10T12:26:02.744Z,2.55
2022-11-10T12:29:07.885Z,2.40
2022-11-10T12:32:13.427Z,2.23
2022-11-10T12:35:17.408Z,2.40
2022-11-10T12:38:22.959Z,2.58
2022-11-10T12:41:22.205Z,2.00
2022-11-10T12:44:27.777Z,2.00
2022-11-10T12:47:26.145Z,2.33
2022-11-10T12:50:44.525Z,2.42
2022-11-10T12:53:46.177Z,2.20
2022-11-10T12:56:47.765Z,2.35
2022-11-10T12:59:44.957Z,2.22
2022-11-10T13:02:45.555Z,2.13
2022-11-10T13:05:42.859Z,2.10
2022-11-10T13:08:50.131Z,1.77
2022-11-10T13:11:45.873Z,2.50
2022-11-10T13:14:42.803Z,4.78
2022-11-10T13:17:57.822Z,1.95
2022-11-10T13:20:56.754Z,2.50
2022-11-10T13:24:26.938Z,2.35
2022-11-10T13:27:55.972Z,3.47
2022-11-10T13:30:53.053Z,2.40
2022-11-10T13:34:08.859Z,2.30
2022-11-10T13:37:05.101Z,2.33
2022-11-10T13:40:40.044Z,2.07
2022-11-10T13:43:35.311Z,2.63
2022-11-10T13:46:39.771Z,3.53
2022-11-10T13:49:53.023Z,3.25
2022-11-10T13:53:02.793Z,4.57
2022-11-10T13:56:20.794Z,3.60
2022-11-10T13:59:22.224Z,2.92
2022-11-10T14:02:51.775Z,3.03
2022-11-10T14:06:09.624Z,3.30
2022-11-10T14:09:15.096Z,2.50
2022-11-10T14:12:26.762Z,2.85
2022-11-10T14:15:26.568Z,2.63
2022-11-10T14:18:26.073Z,2.40
2022-11-10T14:21:32.679Z,2.33
2022-11-10T14:24:34.095Z,2.42
2022-11-10T14:27:35.479Z,2.27
2022-11-10T14:30:33.900Z,2.60
2022-11-10T14:33:30.903Z,2.33
2022-11-10T14:36:27.203Z,2.35
2022-11-10T14:39:29.755Z,2.10
2022-11-10T14:42:28.933Z,2.05
2022-11-10T14:45:29.260Z,2.50
2022-11-10T14:48:29.732Z,2.30
2022-11-10T14:51:25.503Z,2.20
2022-11-10T14:54:29.248Z,2.50
2022-11-10T14:57:24.970Z,2.90
2022-11-10T15:00:31.259Z,2.80
2022-11-10T15:03:39.328Z,2.90
2022-11-10T15:06:35.735Z,2.80
2022-11-10T15:09:37.013Z,2.43
2022-11-10T15:12:41.803Z,2.60
2022-11-10T15:15:42.758Z,2.60
2022-11-10T15:18:40.511Z,2.23
2022-11-10T15:21:43.015Z,3.10
2022-11-10T15:24:40.274Z,3.42
2022-11-10T15:27:39.640Z,2.37
2022-11-10T15:30:39.642Z,3.83
2022-11-10T15:33:45.634Z,3.23
2022-11-10T15:36:42.661Z,3.67
2022-11-10T15:39:38.019Z,3.03
2022-11-10T15:42:34.064Z,3.07
2022-11-10T15:45:31.038Z,3.27
2022-11-10T15:48:41.752Z,3.33
2022-11-10T15:51:37.301Z,3.63
2022-11-10T15:54:39.551Z,3.77
2022-11-10T15:57:36.679Z,3.38
2022-11-10T16:00:32.842Z,3.40
2022-11-10T16:03:31.608Z,3.57
2022-11-10T16:06:27.940Z,4.30
2022-11-10T16:09:23.235Z,4.17
2022-11-10T16:12:24.185Z,4.17
2022-11-10T16:15:24.586Z,3.20
2022-11-10T16:18:24.227Z,3.20
2022-11-10T16:21:25.293Z,3.80
2022-11-10T16:24:21.543Z,3.73
2022-11-10T16:27:20.080Z,3.67
2022-11-10T16:30:20.226Z,3.63
2022-11-10T16:33:19.279Z,4.37
2022-11-10T16:36:26.785Z,3.90
2022-11-10T16:39:22.649Z,4.97
2022-11-10T16:42:21.493Z,4.57
2022-11-10T16:45:23.646Z,3.40
2022-11-10T16:48:28.878Z,4.33
2022-11-10T16:51:40.929Z,4.00
2022-11-10T16:54:44.124Z,4.20
2022-11-10T16:57:43.414Z,4.73
2022-11-10T17:00:45.217Z,4.20
2022-11-10T17:03:52.415Z,5.23
2022-11-10T17:06:59.391Z,4.70
2022-11-10T17:09:58.958Z,5.77
2022-11-10T17:12:57.102Z,5.20
2022-11-10T17:16:00.192Z,5.63
2022-11-10T17:18:59.732Z,5.63
2022-11-10T17:21:58.673Z,5.30
2022-11-10T17:24:59.333Z,6.53
2022-11-10T17:27:57.203Z,6.37
2022-11-10T17:30:56.874Z,6.40
2022-11-10T17:33:53.284Z,7.67
2022-11-10T17:36:58.073Z,6.57
2022-11-10T17:39:55.682Z,7.32
2022-11-10T17:42:54.033Z,6.90
2022-11-10T17:45:52.246Z,7.10
2022-11-10T17:48:50.548Z,8.50
2022-11-10T17:51:49.254Z,7.70
2022-11-10T17:54:52.792Z,7.37
2022-11-10T17:57:49.553Z,7.87
2022-11-10T18:00:47.266Z,7.67
2022-11-10T18:03:47.643Z,7.77
2022-11-10T18:06:44.914Z,7.87
2022-11-10T18:09:45.780Z,8.87
2022-11-10T18:12:49.592Z,7.57
2022-11-10T18:15:47.355Z,7.73
2022-11-10T18:18:45.423Z,7.53
2022-11-10T18:21:43.284Z,8.13
2022-11-10T18:24:41.297Z,8.57
2022-11-10T18:27:40.655Z,8.53
2022-11-10T18:30:43.333Z,8.57
2022-11-10T18:33:40.035Z,8.07
2022-11-10T18:36:37.441Z,9.00
2022-11-10T18:39:34.001Z,7.80
2022-11-10T18:42:38.885Z,8.93
2022-11-10T18:45:34.937Z,8.32
2022-11-10T18:48:37.241Z,8.03
2022-11-10T18:51:39.501Z,7.43
2022-11-10T18:54:36.528Z,8.23
2022-11-10T18:57:32.566Z,8.07
2022-11-10T19:00:29.437Z,8.00
2022-11-10T19:03:28.574Z,7.67
2022-11-10T19:06:28.109Z,7.77
2022-11-10T19:09:23.928Z,9.10
2022-11-10T19:12:26.301Z,7.77
2022-11-10T19:15:22.705Z,7.87
2022-11-10T19:18:20.177Z,8.47
2022-11-10T19:21:18.738Z,8.07
2022-11-10T19:24:27.693Z,7.87
2022-11-10T19:27:25.357Z,7.77
2022-11-10T19:30:22.128Z,8.00
2022-11-10T19:33:18.266Z,7.60
2022-11-10T19:36:30.831Z,11.80
2022-11-10T19:42:27.733Z,7.70
2022-11-10T19:45:25.144Z,10.43
2022-11-10T19:48:21.554Z,10.73
2022-11-10T19:51:19.816Z,8.70
2022-11-10T19:54:17.023Z,9.40
2022-11-10T19:57:16.025Z,8.23
2022-11-10T20:00:17.164Z,7.10
2022-11-10T20:03:13.437Z,7.30
2022-11-10T20:06:14.013Z,7.57
2022-11-10T20:09:10.480Z,7.27
2022-11-10T20:12:07.614Z,9.23
2022-11-10T20:15:11.493Z,9.13
2022-11-10T20:18:08.744Z,7.37
2022-11-10T20:21:07.323Z,7.67
2022-11-10T20:24:04.104Z,6.87
2022-11-10T20:27:01.039Z,6.90
2022-11-10T20:30:06.863Z,6.50
2022-11-10T20:33:09.758Z,6.70
2022-11-10T20:36:18.988Z,6.77
2022-11-10T20:39:16.048Z,7.23
2022-11-10T20:42:13.937Z,6.83
2022-11-10T20:45:12.236Z,7.60
2022-11-10T20:48:11.554Z,7.33
2022-11-10T20:51:18.284Z,7.83
2022-11-10T20:54:19.195Z,7.73
2022-11-10T20:57:17.796Z,7.50
2022-11-10T21:00:16.564Z,11.80
2022-11-10T21:03:17.793Z,13.10
2022-11-10T21:06:16.148Z,9.47
2022-11-10T21:09:16.734Z,9.80
2022-11-10T21:12:28.885Z,9.40
2022-11-10T21:15:26.814Z,8.67
